createdAt,value
2023-02-26T00:03:24.357Z,100971.59
2023-02-26T00:08:28.004Z,100964.91
2023-02-26T00:13:34.231Z,100972.75
2023-02-26T00:18:48.056Z,100979.09
2023-02-26T00:23:52.162Z,100971.16
2023-02-26T00:28:56.766Z,100976.47
2023-02-26T00:34:02.928Z,100954.97
2023-02-26T00:39:08.443Z,100957.94
2023-02-26T00:44:12.713Z,100957.25
2023-02-26T00:49:28.343Z,100949.25
2023-02-26T00:54:32.838Z,100950.81
2023-02-26T00:59:36.476Z,100963.88
2023-02-26T01:04:45.500Z,100964.94
2023-02-26T01:09:49.704Z,100971.91
2023-02-26T01:14:53.964Z,100970.06
2023-02-26T01:20:02.794Z,100973.25
2023-02-26T01:25:08.953Z,100983.03
2023-02-26T01:30:12.277Z,100988.31
2023-02-26T01:35:32.668Z,100975.34
2023-02-26T01:41:11.593Z,100973.72
2023-02-26T01:46:19.397Z,100973.91
2023-02-26T01:51:47.416Z,100975.59
2023-02-26T01:56:54.025Z,100978.66
2023-02-26T02:02:00.340Z,100974.63
2023-02-26T02:07:06.131Z,100971.97
2023-02-26T02:12:21.988Z,100978.94
2023-02-26T02:17:38.421Z,100983.25
2023-02-26T02:22:55.772Z,101000.69
2023-02-26T02:28:04.806Z,100997.31
2023-02-26T02:33:15.900Z,101006.06
2023-02-26T02:38:24.459Z,101001.94
2023-02-26T02:43:33.326Z,101020.25
2023-02-26T02:48:42.396Z,101034.13
2023-02-26T02:53:51.973Z,101044.47
2023-02-26T02:59:00.976Z,101041.28
2023-02-26T03:04:09.095Z,101058.72
2023-02-26T03:09:12.727Z,101076.72
2023-02-26T03:14:16.882Z,101079.31
2023-02-26T03:19:27.184Z,101083.72
2023-02-26T03:24:37.635Z,101086.66
2023-02-26T03:29:48.024Z,101100.53
2023-02-26T03:34:59.941Z,101103.13
2023-02-26T03:40:08.634Z,101099.00
2023-02-26T03:45:15.857Z,101091.19
2023-02-26T03:50:27.096Z,101103.41
2023-02-26T03:55:36.333Z,101118.94
2023-02-26T04:00:43.255Z,101129.16
2023-02-26T04:05:51.448Z,101123.09
2023-02-26T04:10:58.786Z,101113.47
2023-02-26T04:16:02.507Z,101122.91
2023-02-26T04:21:08.065Z,101119.50
2023-02-26T04:26:11.750Z,101123.00
2023-02-26T04:31:15.490Z,101122.16
2023-02-26T04:36:22.160Z,101115.16
2023-02-26T04:41:25.932Z,101109.19
2023-02-26T04:46:29.760Z,101108.31
2023-02-26T04:51:35.185Z,101122.13
2023-02-26T04:56:38.818Z,101125.63
2023-02-26T05:01:42.550Z,101127.41
2023-02-26T05:06:47.874Z,101131.78
2023-02-26T05:11:51.494Z,101127.41
2023-02-26T05:16:55.200Z,101139.59
2023-02-26T05:22:00.507Z,101139.69
2023-02-26T05:27:04.252Z,101146.66
2023-02-26T05:32:07.933Z,101139.59
2023-02-26T05:37:13.268Z,101144.81
2023-02-26T05:42:16.961Z,101148.25
2023-02-26T05:47:20.654Z,101137.97
2023-02-26T05:52:25.949Z,101150.09
2023-02-26T05:57:29.616Z,101157.91
2023-02-26T06:02:33.401Z,101145.16
2023-02-26T06:07:38.712Z,101141.97
2023-02-26T06:12:42.990Z,101160.53
2023-02-26T06:17:46.611Z,101151.16
2023-02-26T06:22:51.947Z,101149.50
2023-02-26T06:27:55.558Z,101146.91
2023-02-26T06:32:59.203Z,101128.66
2023-02-26T06:38:05.742Z,101136.47
2023-02-26T06:43:09.400Z,101133.09
2023-02-26T06:48:13.220Z,101135.84
2023-02-26T06:53:18.512Z,101139.28
2023-02-26T06:58:22.296Z,101156.66
2023-02-26T07:03:25.903Z,101167.16
2023-02-26T07:08:31.201Z,101148.25
2023-02-26T07:13:35.579Z,101145.66
2023-02-26T07:18:39.303Z,101150.13
2023-02-26T07:23:44.614Z,101142.31
2023-02-26T07:28:48.256Z,101143.25
2023-02-26T07:33:51.881Z,101148.50
2023-02-26T07:38:57.177Z,101154.53
2023-02-26T07:44:00.825Z,101160.59
2023-02-26T07:49:04.671Z,101158.03
2023-02-26T07:54:09.958Z,101155.53
2023-02-26T07:59:13.697Z,101158.94
2023-02-26T08:04:17.530Z,101159.88
2023-02-26T08:09:24.076Z,101153.75
2023-02-26T08:14:27.780Z,101165.88
2023-02-26T08:19:31.411Z,101184.03
2023-02-26T08:24:36.914Z,101190.97
2023-02-26T08:29:40.536Z,101189.28
2023-02-26T08:34:44.195Z,101190.13
2023-02-26T08:39:49.486Z,101188.44
2023-02-26T08:44:53.112Z,101192.72
2023-02-26T08:49:57.022Z,101195.28
2023-02-26T08:55:02.336Z,101184.09
2023-02-26T09:00:07.179Z,101183.19
2023-02-26T09:05:11.054Z,101187.53
2023-02-26T09:10:16.960Z,101178.00
2023-02-26T09:15:20.831Z,101188.44
2023-02-26T09:20:25.121Z,101185.81
2023-02-26T09:25:30.429Z,101177.94
2023-02-26T09:30:34.134Z,101179.69
2023-02-26T09:35:38.054Z,101188.38
2023-02-26T09:40:47.859Z,101189.22
2023-02-26T09:45:54.615Z,101186.63
2023-02-26T09:50:59.862Z,101184.03
2023-02-26T09:56:08.860Z,101179.69
2023-02-26T10:01:20.399Z,101178.03
2023-02-26T10:06:28.271Z,101172.91
2023-02-26T10:11:42.584Z,101178.97
2023-02-26T10:16:52.148Z,101191.97
2023-02-26T10:22:01.816Z,101172.91
2023-02-26T10:27:10.959Z,101183.31
2023-02-26T10:32:25.803Z,101183.34
2023-02-26T10:37:44.819Z,101172.09
2023-02-26T10:42:53.767Z,101166.88
2023-02-26T10:48:10.075Z,101179.91
2023-02-26T10:53:14.070Z,101185.97
2023-02-26T10:58:21.712Z,101177.31
2023-02-26T11:03:33.596Z,101173.00
2023-02-26T11:08:42.867Z,101166.97
2023-02-26T11:13:48.984Z,101160.03
2023-02-26T11:18:55.806Z,101173.03
2023-02-26T11:24:06.048Z,101153.97
2023-02-26T11:29:16.631Z,101174.78
2023-02-26T11:34:24.288Z,101174.78
2023-02-26T11:39:29.972Z,101185.97
2023-02-26T11:44:39.296Z,101179.91
2023-02-26T11:49:45.866Z,101176.44
2023-02-26T11:54:56.096Z,101184.19
2023-02-26T12:00:02.331Z,101183.31
2023-02-26T12:05:08.149Z,101182.41
2023-02-26T12:10:18.443Z,101178.06
2023-02-26T12:15:33.105Z,101171.97
2023-02-26T12:20:43.911Z,101172.78
2023-02-26T12:26:05.728Z,101176.28
2023-02-26T12:31:41.465Z,101181.47
2023-02-26T12:36:59.306Z,101193.56
2023-02-26T12:42:18.209Z,101184.06
2023-02-26T12:47:40.848Z,101193.56
2023-02-26T12:53:00.260Z,101197.03
2023-02-26T12:58:30.909Z,101184.00
2023-02-26T13:03:55.729Z,101186.63
2023-02-26T13:09:08.162Z,101190.06
2023-02-26T13:14:27.961Z,101184.84
2023-02-26T13:19:42.351Z,101185.72
2023-02-26T13:24:50.885Z,101192.66
2023-02-26T13:30:07.689Z,101197.00
2023-02-26T13:35:21.032Z,101209.13
2023-02-26T13:40:46.608Z,101183.13
2023-02-26T13:46:00.654Z,101197.00
2023-02-26T13:51:11.265Z,101189.88
2023-02-26T13:56:17.732Z,101196.94
2023-02-26T14:01:29.461Z,101193.50
2023-02-26T14:06:43.240Z,101194.31
2023-02-26T14:11:59.725Z,101203.88
2023-02-26T14:17:37.833Z,101213.44
2023-02-26T14:22:43.034Z,101225.53
2023-02-26T14:27:47.977Z,101229.91
2023-02-26T14:32:55.327Z,101247.28
2023-02-26T14:38:04.016Z,101261.09
2023-02-26T14:43:11.034Z,101280.13
2023-02-26T14:48:17.226Z,101258.47
2023-02-26T14:53:54.886Z,101261.94
2023-02-26T14:59:25.674Z,101273.19
2023-02-26T15:05:06.776Z,101278.41
2023-02-26T15:10:33.989Z,101279.31
2023-02-26T15:15:44.664Z,101289.66
2023-02-26T15:20:55.337Z,101293.13
2023-02-26T15:26:00.907Z,101295.75
2023-02-26T15:31:07.759Z,101305.31
2023-02-26T15:36:17.251Z,101320.00
2023-02-26T15:41:23.539Z,101326.06
2023-02-26T15:46:29.269Z,101325.19
2023-02-26T15:51:34.070Z,101346.88
2023-02-26T15:56:40.026Z,101354.66
2023-02-26T16:01:44.172Z,101361.59
2023-02-26T16:06:49.851Z,101355.44
2023-02-26T16:11:58.529Z,101354.53
2023-02-26T16:17:02.748Z,101364.09
2023-02-26T16:22:21.877Z,101367.50
2023-02-26T16:27:29.459Z,101366.66
2023-02-26T16:32:35.897Z,101368.25
2023-02-26T16:37:46.067Z,101363.91
2023-02-26T16:43:00.879Z,101356.91
2023-02-26T16:48:07.416Z,101359.34
2023-02-26T16:53:16.757Z,101359.22
2023-02-26T16:58:22.413Z,101353.19
2023-02-26T17:03:27.431Z,101354.88
2023-02-26T17:08:36.083Z,101350.41
2023-02-26T17:13:43.660Z,101339.78
2023-02-26T17:18:47.285Z,101349.28
2023-02-26T17:23:51.029Z,101349.19
2023-02-26T17:28:56.425Z,101344.00
2023-02-26T17:34:00.089Z,101349.75
2023-02-26T17:39:03.741Z,101358.50
2023-02-26T17:44:09.048Z,101370.91
2023-02-26T17:49:13.243Z,101376.88
2023-02-26T17:54:16.866Z,101376.19
2023-02-26T17:59:22.196Z,101374.41
2023-02-26T18:04:26.133Z,101376.03
2023-02-26T18:09:29.843Z,101370.75
2023-02-26T18:14:35.136Z,101372.13
2023-02-26T18:19:38.788Z,101377.00
2023-02-26T18:24:42.823Z,101377.28
2023-02-26T18:29:48.503Z,101368.84
2023-02-26T18:34:52.413Z,101353.78
2023-02-26T18:39:56.117Z,101378.28
2023-02-26T18:45:01.492Z,101368.03
2023-02-26T18:50:05.933Z,101375.03
2023-02-26T18:55:10.615Z,101390.75
2023-02-26T19:00:16.640Z,101367.63
2023-02-26T19:05:20.454Z,101381.69
2023-02-26T19:10:24.256Z,101387.56
2023-02-26T19:15:29.723Z,101381.31
2023-02-26T19:20:33.410Z,101377.56
2023-02-26T19:25:37.588Z,101371.44
2023-02-26T19:30:42.924Z,101366.09
2023-02-26T19:35:46.567Z,101337.53
2023-02-26T19:40:51.090Z,101326.06
2023-02-26T19:45:56.543Z,101315.50
2023-02-26T19:51:00.331Z,101296.94
2023-02-26T19:56:04.301Z,101301.19
2023-02-26T20:01:09.811Z,101306.56
2023-02-26T20:06:13.445Z,101307.53
2023-02-26T20:11:17.143Z,101302.44
2023-02-26T20:16:22.514Z,101288.75
2023-02-26T20:21:26.664Z,101307.00
2023-02-26T20:26:30.686Z,101281.13
2023-02-26T20:31:36.129Z,101276.84
2023-02-26T20:36:39.864Z,101283.31
2023-02-26T20:41:43.512Z,101293.91
2023-02-26T20:46:48.925Z,101286.88
2023-02-26T20:51:52.696Z,101270.44
2023-02-26T20:56:56.395Z,101263.53
2023-02-26T21:02:01.766Z,101251.34
2023-02-26T21:07:05.412Z,101244.97
2023-02-26T21:12:09.061Z,101243.06
2023-02-26T21:17:15.282Z,101239.69
2023-02-26T21:22:19.724Z,101238.81
2023-02-26T21:27:23.331Z,101230.28
2023-02-26T21:32:28.665Z,101224.16
2023-02-26T21:37:32.306Z,101227.66
2023-02-26T21:42:36.016Z,101220.59
2023-02-26T21:47:41.315Z,101223.34
2023-02-26T21:52:45.352Z,101227.72
2023-02-26T21:57:49.042Z,101211.25
2023-02-26T22:02:54.448Z,101194.84
2023-02-26T22:07:58.102Z,101209.72
2023-02-26T22:13:01.715Z,101194.97
2023-02-26T22:18:07.140Z,101207.28
2023-02-26T22:23:10.801Z,101189.94
2023-02-26T22:28:14.529Z,101187.16
2023-02-26T22:33:19.889Z,101171.53
2023-02-26T22:38:23.632Z,101173.28
2023-02-26T22:43:27.276Z,101174.06
2023-02-26T22:48:32.613Z,101162.66
2023-02-26T22:53:36.331Z,101169.53
2023-02-26T22:58:40.000Z,101180.81
2023-02-26T23:03:45.453Z,101164.50
2023-02-26T23:08:49.124Z,101172.50
2023-02-26T23:13:52.772Z,101182.97
2023-02-26T23:18:58.097Z,101184.44
2023-02-26T23:24:01.751Z,101173.88
2023-02-26T23:29:05.368Z,101170.88
2023-02-26T23:34:10.661Z,101178.56
2023-02-26T23:39:14.325Z,101204.22
2023-02-26T23:44:18.018Z,101213.72
2023-02-26T23:49:24.096Z,101223.00
2023-02-26T23:54:27.754Z,101222.28
2023-02-26T23:59:31.481Z,101224.03
